Time;durP1;ratioP1;P1;durP2;ratioP2;P2;SDS_P1;SDS_P2;PMS_P1;PMS_P2;Temp;Humidity;BMP_temperature;BMP_pressure;BME280_temperature;BME280_humidity;BME280_pressure;Samples;Min_cycle;Max_cycle;Signal;HPM_P1;HPM_P2
2022/08/29 00:02:07;;;;;;;;;;;19.30;66.40;;;;;;5068720;28;19913;-64
2022/08/29 00:04:32;;;;;;;;;;;19.20;66.30;;;;;;5067520;28;19963;-65
2022/08/29 00:06:58;;;;;;;;;;;19.20;66.40;;;;;;5071611;28;19923;-65
2022/08/29 00:09:23;;;;;;;;;;;19.20;66.50;;;;;;5071382;28;19913;-65
2022/08/29 00:11:49;;;;;;;;;;;19.20;66.50;;;;;;5071561;28;19959;-65
2022/08/29 00:14:14;;;;;;;;;;;19.20;66.40;;;;;;5071384;28;19917;-65
2022/08/29 00:16:40;;;;;;;;;;;19.10;66.50;;;;;;5071654;28;19919;-65
2022/08/29 00:19:05;;;;;;;;;;;19.10;66.40;;;;;;5053874;28;19912;-64
2022/08/29 00:21:31;;;;;;;;;;;19.10;66.60;;;;;;5072132;28;19916;-65
2022/08/29 00:23:57;;;;;;;;;;;19.10;66.60;;;;;;5071554;28;19908;-64
2022/08/29 00:26:23;;;;;;;;;;;19.10;66.60;;;;;;5068818;28;19913;-65
2022/08/29 00:28:48;;;;;;;;;;;19.00;66.60;;;;;;5068500;28;19916;-65
2022/08/29 00:31:14;;;;;;;;;;;19.00;66.70;;;;;;5067895;28;19920;-65
2022/08/29 00:33:39;;;;;;;;;;;19.00;66.70;;;;;;5065930;28;19942;-65
2022/08/29 00:36:05;;;;;;;;;;;19.00;66.70;;;;;;5068351;28;19916;-65
2022/08/29 00:38:30;;;;;;;;;;;18.90;66.70;;;;;;5068483;28;19948;-65
2022/08/29 00:40:56;;;;;;;;;;;18.90;66.90;;;;;;5067941;28;19908;-65
2022/08/29 00:43:24;;;;;;;;;;;18.90;66.90;;;;;;5067783;28;19966;-64
2022/08/29 00:45:52;;;;;;;;;;;18.90;67.00;;;;;;5068048;28;20021;-64
2022/08/29 00:48:18;;;;;;;;;;;18.90;67.10;;;;;;5065970;28;20308;-64
2022/08/29 00:50:47;;;;;;;;;;;18.90;67.10;;;;;;5067804;28;19912;-64
2022/08/29 00:53:14;;;;;;;;;;;18.90;67.30;;;;;;5068056;28;20349;-64
2022/08/29 00:55:40;;;;;;;;;;;18.80;67.20;;;;;;5068272;28;19919;-64
2022/08/29 00:58:11;;;;;;;;;;;18.80;67.30;;;;;;5067579;28;19917;-64
2022/08/29 01:00:37;;;;;;;;;;;18.80;67.30;;;;;;5067664;28;20369;-64
2022/08/29 01:03:04;;;;;;;;;;;18.80;67.30;;;;;;5064801;28;19920;-64
2022/08/29 01:05:29;;;;;;;;;;;18.70;67.40;;;;;;5067733;28;19919;-64
2022/08/29 01:07:55;;;;;;;;;;;18.70;67.50;;;;;;5050108;28;19912;-64
2022/08/29 01:13:05;;;;;;;;;;;18.70;67.60;;;;;;5068001;28;19923;-64
2022/08/29 01:15:32;;;;;;;;;;;18.70;67.60;;;;;;5048595;28;19916;-64
2022/08/29 01:17:58;;;;;;;;;;;18.60;67.60;;;;;;5068122;28;19963;-64
2022/08/29 01:20:24;;;;;;;;;;;18.60;67.60;;;;;;5065850;28;19944;-64
2022/08/29 01:22:49;;;;;;;;;;;18.60;67.60;;;;;;5067065;28;20033;-64
2022/08/29 01:25:17;;;;;;;;;;;18.60;67.60;;;;;;5067386;28;19926;-64
2022/08/29 01:27:45;;;;;;;;;;;18.50;67.70;;;;;;5049388;28;19965;-64
2022/08/29 01:30:10;;;;;;;;;;;18.50;67.80;;;;;;5049180;28;19919;-64
2022/08/29 01:32:36;;;;;;;;;;;18.50;67.70;;;;;;5049686;28;19912;-64
2022/08/29 01:35:02;;;;;;;;;;;18.50;67.70;;;;;;5067405;28;19912;-64
2022/08/29 01:37:30;;;;;;;;;;;18.50;67.80;;;;;;5066793;28;20285;-64
2022/08/29 01:39:55;;;;;;;;;;;18.50;67.80;;;;;;5066874;28;19966;-64
2022/08/29 01:42:22;;;;;;;;;;;18.40;67.80;;;;;;5066190;28;19908;-64
2022/08/29 01:44:52;;;;;;;;;;;18.40;67.80;;;;;;5067065;28;19920;-64
2022/08/29 01:47:18;;;;;;;;;;;18.40;67.90;;;;;;5066284;28;19916;-64
2022/08/29 01:49:44;;;;;;;;;;;18.40;67.90;;;;;;5066641;28;19982;-64
2022/08/29 01:52:11;;;;;;;;;;;18.40;67.90;;;;;;5066241;28;19975;-65
2022/08/29 01:54:38;;;;;;;;;;;18.30;67.90;;;;;;5066822;28;19908;-65
2022/08/29 01:57:04;;;;;;;;;;;18.30;68.00;;;;;;5066984;28;20364;-65
2022/08/29 01:59:30;;;;;;;;;;;18.30;68.00;;;;;;5066549;28;19912;-64
2022/08/29 02:01:56;;;;;;;;;;;18.30;68.20;;;;;;5065819;28;20477;-64
2022/08/29 02:04:21;;;;;;;;;;;18.30;68.00;;;;;;5060639;28;20007;-64
2022/08/29 02:06:47;;;;;;;;;;;18.30;68.20;;;;;;5066988;28;20387;-64
2022/08/29 02:09:13;;;;;;;;;;;18.20;68.10;;;;;;5066451;28;19913;-64
2022/08/29 02:11:38;;;;;;;;;;;18.20;68.20;;;;;;5066539;28;19916;-65
2022/08/29 02:14:04;;;;;;;;;;;18.20;68.20;;;;;;5066520;28;19912;-64
2022/08/29 02:16:30;;;;;;;;;;;18.20;68.20;;;;;;5066406;28;20730;-64
2022/08/29 02:18:56;;;;;;;;;;;18.20;68.20;;;;;;5066526;28;19969;-64
2022/08/29 02:21:23;;;;;;;;;;;18.20;68.30;;;;;;5065854;28;20042;-64
2022/08/29 02:23:49;;;;;;;;;;;18.10;68.30;;;;;;5066353;28;19919;-65
2022/08/29 02:26:15;;;;;;;;;;;18.10;68.30;;;;;;5065008;28;19917;-64
2022/08/29 02:28:41;;;;;;;;;;;18.10;68.40;;;;;;5066230;28;19913;-64
2022/08/29 02:31:07;;;;;;;;;;;18.10;68.40;;;;;;5066050;28;19958;-64
2022/08/29 02:33:34;;;;;;;;;;;18.10;68.40;;;;;;5048014;28;19908;-64
2022/08/29 02:35:59;;;;;;;;;;;18.00;68.40;;;;;;5065917;28;20253;-64
2022/08/29 02:38:25;;;;;;;;;;;18.00;68.60;;;;;;5047931;28;19912;-64
2022/08/29 02:40:51;;;;;;;;;;;18.00;68.60;;;;;;5065159;28;20559;-64
2022/08/29 02:43:18;;;;;;;;;;;18.00;68.60;;;;;;5065447;28;19916;-64
2022/08/29 02:45:44;;;;;;;;;;;18.00;69.40;;;;;;5066516;28;19916;-64
2022/08/29 02:48:12;;;;;;;;;;;18.00;68.70;;;;;;5066225;28;19912;-64
2022/08/29 02:50:38;;;;;;;;;;;18.00;68.70;;;;;;5046957;28;20280;-64
2022/08/29 02:53:04;;;;;;;;;;;17.90;68.70;;;;;;5065952;28;20397;-64
2022/08/29 02:55:29;;;;;;;;;;;18.00;68.80;;;;;;5065897;28;19919;-64
2022/08/29 02:57:57;;;;;;;;;;;17.90;68.80;;;;;;5046731;28;20019;-64
2022/08/29 03:00:24;;;;;;;;;;;17.90;68.80;;;;;;5065665;28;19924;-64
2022/08/29 03:02:50;;;;;;;;;;;17.90;68.80;;;;;;5059516;28;19916;-64
2022/08/29 03:05:16;;;;;;;;;;;17.90;68.80;;;;;;5065888;28;19916;-65
2022/08/29 03:07:42;;;;;;;;;;;17.80;68.80;;;;;;5047974;28;19912;-64
2022/08/29 03:10:08;;;;;;;;;;;17.80;68.90;;;;;;5065869;28;20253;-64
2022/08/29 03:12:35;;;;;;;;;;;17.80;68.90;;;;;;5061440;28;19924;-65
2022/08/29 03:15:00;;;;;;;;;;;17.80;68.90;;;;;;5064095;28;19917;-64
2022/08/29 03:17:26;;;;;;;;;;;17.80;68.90;;;;;;5065681;28;19966;-65
2022/08/29 03:19:51;;;;;;;;;;;17.80;68.90;;;;;;5065542;28;19909;-64
2022/08/29 03:22:17;;;;;;;;;;;17.80;69.00;;;;;;5063748;28;19916;-64
2022/08/29 03:24:42;;;;;;;;;;;17.70;69.00;;;;;;5065648;28;20014;-64
2022/08/29 03:27:08;;;;;;;;;;;17.80;69.10;;;;;;5065892;28;20431;-65
2022/08/29 03:29:33;;;;;;;;;;;17.70;69.10;;;;;;5047935;28;19920;-64
2022/08/29 03:31:59;;;;;;;;;;;17.70;69.10;;;;;;5065250;28;20024;-65
2022/08/29 03:34:27;;;;;;;;;;;17.70;69.10;;;;;;5063730;28;19912;-65
2022/08/29 03:36:53;;;;;;;;;;;17.70;69.10;;;;;;5066120;28;20025;-64
2022/08/29 03:39:19;;;;;;;;;;;17.70;69.20;;;;;;5066104;28;20498;-66
2022/08/29 03:41:44;;;;;;;;;;;17.70;69.20;;;;;;5069334;28;19957;-66
2022/08/29 03:44:11;;;;;;;;;;;17.60;69.20;;;;;;5064557;28;20389;-65
2022/08/29 03:46:38;;;;;;;;;;;17.60;69.30;;;;;;5060738;28;21767;-65
2022/08/29 03:49:05;;;;;;;;;;;17.60;69.30;;;;;;5063936;28;19956;-64
2022/08/29 03:51:34;;;;;;;;;;;17.60;69.30;;;;;;5063309;28;19921;-64
2022/08/29 03:54:00;;;;;;;;;;;17.60;69.30;;;;;;5064554;28;19944;-64
2022/08/29 03:56:26;;;;;;;;;;;17.60;69.40;;;;;;5064414;28;20716;-64
2022/08/29 03:58:51;;;;;;;;;;;17.60;69.40;;;;;;5064684;28;19923;-64
2022/08/29 04:01:18;;;;;;;;;;;17.60;69.50;;;;;;5064978;28;19913;-64
2022/08/29 04:03:43;;;;;;;;;;;17.50;69.50;;;;;;5067940;28;19952;-64
2022/08/29 04:06:10;;;;;;;;;;;17.50;69.50;;;;;;5069234;28;19955;-64
2022/08/29 04:08:35;;;;;;;;;;;17.50;69.50;;;;;;5069401;28;19924;-64
2022/08/29 04:11:06;;;;;;;;;;;17.50;69.50;;;;;;5069217;28;19912;-65
2022/08/29 04:13:32;;;;;;;;;;;17.50;69.60;;;;;;5069256;28;20289;-65
2022/08/29 04:15:57;;;;;;;;;;;17.50;69.60;;;;;;5069180;28;19909;-64
2022/08/29 04:18:23;;;;;;;;;;;17.50;69.60;;;;;;5068638;28;20381;-64
2022/08/29 04:20:48;;;;;;;;;;;17.50;69.70;;;;;;5068294;28;19916;-65
2022/08/29 04:23:14;;;;;;;;;;;17.50;69.70;;;;;;5068675;28;20375;-64
2022/08/29 04:25:41;;;;;;;;;;;17.40;69.70;;;;;;5068465;28;20768;-64
2022/08/29 04:28:09;;;;;;;;;;;17.40;69.70;;;;;;5068408;28;19916;-64
2022/08/29 04:30:35;;;;;;;;;;;17.40;69.70;;;;;;5068090;28;19999;-65
2022/08/29 04:33:01;;;;;;;;;;;17.40;69.80;;;;;;5068486;28;20402;-64
2022/08/29 04:35:27;;;;;;;;;;;17.40;69.80;;;;;;5064620;28;19912;-64
2022/08/29 04:37:53;;;;;;;;;;;17.30;69.70;;;;;;5068556;28;19913;-64
2022/08/29 04:40:20;;;;;;;;;;;17.40;69.90;;;;;;5068516;28;19913;-64
2022/08/29 04:42:48;;;;;;;;;;;17.30;69.80;;;;;;5068689;28;19912;-64
2022/08/29 04:45:16;;;;;;;;;;;17.40;70.00;;;;;;5068613;28;19920;-64
2022/08/29 04:47:42;;;;;;;;;;;17.30;69.90;;;;;;5068104;28;20278;-64
2022/08/29 04:50:09;;;;;;;;;;;17.30;69.90;;;;;;5068453;28;19912;-64
2022/08/29 04:52:35;;;;;;;;;;;17.30;69.90;;;;;;5067787;28;19920;-64
2022/08/29 04:55:01;;;;;;;;;;;17.30;70.00;;;;;;5050531;28;19912;-64
2022/08/29 04:57:27;;;;;;;;;;;17.20;70.00;;;;;;5068694;28;19938;-64
2022/08/29 04:59:53;;;;;;;;;;;17.30;70.00;;;;;;5068570;28;19908;-64
2022/08/29 05:02:19;;;;;;;;;;;17.30;70.10;;;;;;5064094;28;19999;-64
2022/08/29 05:04:46;;;;;;;;;;;17.30;70.10;;;;;;5066405;28;20371;-64
2022/08/29 05:07:12;;;;;;;;;;;17.20;70.10;;;;;;5068071;28;19913;-64
2022/08/29 05:09:37;;;;;;;;;;;17.20;70.10;;;;;;5067976;28;20712;-64
2022/08/29 05:12:03;;;;;;;;;;;17.20;70.10;;;;;;5049488;28;19916;-64
2022/08/29 05:14:29;;;;;;;;;;;17.30;70.20;;;;;;5068045;28;19955;-64
2022/08/29 05:16:55;;;;;;;;;;;17.30;70.20;;;;;;5068000;28;20031;-64
2022/08/29 05:19:21;;;;;;;;;;;17.20;70.20;;;;;;5066446;28;19920;-64
2022/08/29 05:21:46;;;;;;;;;;;17.20;70.30;;;;;;5067492;28;19927;-64
2022/08/29 05:24:12;;;;;;;;;;;17.20;70.30;;;;;;5068437;28;20274;-64
2022/08/29 05:26:39;;;;;;;;;;;17.20;70.30;;;;;;5068202;28;19912;-64
2022/08/29 05:29:06;;;;;;;;;;;17.20;70.40;;;;;;5067664;28;19950;-64
2022/08/29 05:31:31;;;;;;;;;;;17.20;70.40;;;;;;5067804;28;20369;-64
2022/08/29 05:33:57;;;;;;;;;;;17.20;70.40;;;;;;5067586;28;19915;-64
2022/08/29 05:36:23;;;;;;;;;;;17.20;70.40;;;;;;5067528;28;19917;-64
2022/08/29 05:38:48;;;;;;;;;;;17.20;70.50;;;;;;5067686;28;19912;-64
2022/08/29 05:41:14;;;;;;;;;;;17.20;70.40;;;;;;5067183;28;19995;-64
2022/08/29 05:43:40;;;;;;;;;;;17.20;70.50;;;;;;5067123;28;19947;-64
2022/08/29 05:46:06;;;;;;;;;;;17.20;70.60;;;;;;5067651;28;19916;-64
2022/08/29 05:48:33;;;;;;;;;;;17.20;70.60;;;;;;5067911;28;19917;-64
2022/08/29 05:50:59;;;;;;;;;;;17.20;70.60;;;;;;5048921;28;19999;-64
2022/08/29 05:53:25;;;;;;;;;;;17.20;70.60;;;;;;5067267;28;19958;-64
2022/08/29 05:55:50;;;;;;;;;;;17.20;70.70;;;;;;5066975;28;19917;-64
2022/08/29 05:58:17;;;;;;;;;;;17.20;70.60;;;;;;5067233;28;19913;-64
2022/08/29 06:00:43;;;;;;;;;;;17.20;70.60;;;;;;5066654;28;20520;-64
2022/08/29 06:03:09;;;;;;;;;;;17.20;70.60;;;;;;5061110;28;19916;-64
2022/08/29 06:05:35;;;;;;;;;;;17.20;70.60;;;;;;5067032;28;20468;-64
2022/08/29 06:08:00;;;;;;;;;;;17.20;70.60;;;;;;5066744;28;19912;-64
2022/08/29 06:10:26;;;;;;;;;;;17.20;70.60;;;;;;5066666;28;19909;-64
2022/08/29 06:12:52;;;;;;;;;;;17.20;70.80;;;;;;5066500;28;19912;-64
2022/08/29 06:15:17;;;;;;;;;;;17.20;70.70;;;;;;5066589;28;19930;-64
2022/08/29 06:17:43;;;;;;;;;;;17.30;70.80;;;;;;5066368;28;19917;-64
2022/08/29 06:20:09;;;;;;;;;;;17.20;70.90;;;;;;5066694;28;19913;-64
2022/08/29 06:22:35;;;;;;;;;;;17.30;70.80;;;;;;5066179;28;19909;-64
2022/08/29 06:25:01;;;;;;;;;;;17.30;70.80;;;;;;5065835;28;19916;-64
2022/08/29 06:27:27;;;;;;;;;;;17.30;70.70;;;;;;5066488;28;19908;-64
2022/08/29 06:29:52;;;;;;;;;;;17.30;70.80;;;;;;5066545;28;19990;-64
2022/08/29 06:32:18;;;;;;;;;;;17.30;70.90;;;;;;5065760;28;19927;-64
2022/08/29 06:34:43;;;;;;;;;;;17.30;70.80;;;;;;5066532;28;19909;-65
2022/08/29 06:37:09;;;;;;;;;;;17.40;70.80;;;;;;5066773;28;19912;-64
2022/08/29 06:39:34;;;;;;;;;;;17.30;70.70;;;;;;5048810;28;19912;-64
2022/08/29 06:42:00;;;;;;;;;;;17.30;70.80;;;;;;5066565;28;20024;-64
2022/08/29 06:44:25;;;;;;;;;;;17.30;70.80;;;;;;5066333;28;19921;-64
2022/08/29 06:46:51;;;;;;;;;;;17.30;70.80;;;;;;5066509;28;19987;-64
2022/08/29 06:49:20;;;;;;;;;;;17.30;70.90;;;;;;5065905;28;20254;-64
2022/08/29 06:51:53;;;;;;;;;;;17.40;71.00;;;;;;5066427;28;19916;-64
2022/08/29 06:54:20;;;;;;;;;;;17.40;71.00;;;;;;5066414;28;19917;-64
2022/08/29 06:56:46;;;;;;;;;;;17.40;71.00;;;;;;5059895;28;20387;-64
2022/08/29 06:59:12;;;;;;;;;;;17.40;71.00;;;;;;5066111;28;19954;-64
2022/08/29 07:01:39;;;;;;;;;;;17.40;71.00;;;;;;5066434;28;19962;-64
2022/08/29 07:04:04;;;;;;;;;;;17.40;71.00;;;;;;5061305;28;19981;-64
2022/08/29 07:06:30;;;;;;;;;;;17.50;71.20;;;;;;5066126;28;20754;-64
2022/08/29 07:08:56;;;;;;;;;;;17.50;71.20;;;;;;5066394;28;20017;-64
2022/08/29 07:11:25;;;;;;;;;;;17.50;71.10;;;;;;5065305;28;19919;-64
2022/08/29 07:13:51;;;;;;;;;;;17.50;71.10;;;;;;5065849;28;19954;-64
2022/08/29 07:16:17;;;;;;;;;;;17.50;71.20;;;;;;5062780;28;19966;-64
2022/08/29 07:18:43;;;;;;;;;;;17.50;71.20;;;;;;5065832;28;19977;-64
2022/08/29 07:21:10;;;;;;;;;;;17.50;71.10;;;;;;5065375;28;20367;-64
2022/08/29 07:23:35;;;;;;;;;;;17.50;71.20;;;;;;5065433;28;20316;-64
2022/08/29 07:26:07;;;;;;;;;;;17.50;71.20;;;;;;5047638;28;19912;-64
2022/08/29 07:28:33;;;;;;;;;;;17.60;71.20;;;;;;5066116;28;20321;-64
2022/08/29 07:30:59;;;;;;;;;;;17.60;71.20;;;;;;5065972;28;20388;-64
2022/08/29 07:33:24;;;;;;;;;;;17.60;71.10;;;;;;5065860;28;19955;-64
2022/08/29 07:35:51;;;;;;;;;;;17.60;71.20;;;;;;5066735;28;19912;-64
2022/08/29 07:38:16;;;;;;;;;;;17.60;71.10;;;;;;5069675;28;19913;-64
2022/08/29 07:40:42;;;;;;;;;;;17.60;71.20;;;;;;5069475;28;19985;-64
2022/08/29 07:43:07;;;;;;;;;;;17.70;71.10;;;;;;5069457;28;19939;-64
2022/08/29 07:45:33;;;;;;;;;;;17.70;71.10;;;;;;5069515;28;19913;-64
2022/08/29 07:47:58;;;;;;;;;;;17.70;71.20;;;;;;5069769;28;20293;-64
2022/08/29 07:50:24;;;;;;;;;;;17.70;71.10;;;;;;5069345;28;19995;-64
2022/08/29 07:52:51;;;;;;;;;;;17.80;71.00;;;;;;5069312;28;19923;-64
2022/08/29 07:55:16;;;;;;;;;;;17.80;71.00;;;;;;5051122;28;20365;-64
2022/08/29 07:57:45;;;;;;;;;;;17.80;70.90;;;;;;5051336;28;19908;-64
2022/08/29 08:00:11;;;;;;;;;;;17.80;71.00;;;;;;5069229;28;19912;-64
2022/08/29 08:02:36;;;;;;;;;;;17.80;70.70;;;;;;5063601;28;19959;-64
2022/08/29 08:05:02;;;;;;;;;;;17.90;70.80;;;;;;5069763;28;19909;-65
2022/08/29 08:07:28;;;;;;;;;;;17.90;70.70;;;;;;5069430;28;20297;-64
2022/08/29 08:09:54;;;;;;;;;;;18.00;70.80;;;;;;5062707;28;19912;-64
2022/08/29 08:12:19;;;;;;;;;;;18.00;70.70;;;;;;5068647;28;19920;-64
2022/08/29 08:14:45;;;;;;;;;;;18.10;70.60;;;;;;5069202;28;20178;-64
2022/08/29 08:17:10;;;;;;;;;;;18.10;70.50;;;;;;5069152;28;19909;-65
2022/08/29 08:19:36;;;;;;;;;;;18.20;70.50;;;;;;5069159;28;19912;-64
2022/08/29 08:22:02;;;;;;;;;;;18.20;70.50;;;;;;5068979;28;20302;-64
2022/08/29 08:24:27;;;;;;;;;;;18.20;70.40;;;;;;5069286;28;20397;-64
2022/08/29 08:26:53;;;;;;;;;;;18.30;70.40;;;;;;5069261;28;19912;-64
2022/08/29 08:29:18;;;;;;;;;;;18.30;70.30;;;;;;5069856;28;20423;-64
2022/08/29 08:31:45;;;;;;;;;;;18.30;70.20;;;;;;5069322;28;19964;-64
2022/08/29 08:34:14;;;;;;;;;;;18.40;70.10;;;;;;5069419;28;19915;-64
2022/08/29 08:36:41;;;;;;;;;;;18.50;70.00;;;;;;5068966;28;19908;-64
2022/08/29 08:39:07;;;;;;;;;;;18.50;69.90;;;;;;5068900;28;20265;-65
2022/08/29 08:41:49;;;;;;;;;;;18.60;69.80;;;;;;5067838;28;20361;-65
2022/08/29 08:44:21;;;;;;;;;;;18.60;69.80;;;;;;5068494;28;19927;-64
2022/08/29 08:46:48;;;;;;;;;;;18.60;69.70;;;;;;5068283;28;19920;-64
2022/08/29 08:49:17;;;;;;;;;;;18.70;69.70;;;;;;5067869;28;20004;-64
2022/08/29 08:51:45;;;;;;;;;;;18.70;69.60;;;;;;5067982;28;19940;-64
2022/08/29 08:54:16;;;;;;;;;;;18.80;70.20;;;;;;5068045;28;19919;-64
2022/08/29 08:56:43;;;;;;;;;;;18.80;69.50;;;;;;5068076;28;19916;-65
2022/08/29 08:59:12;;;;;;;;;;;18.90;69.40;;;;;;5068281;28;20446;-64
2022/08/29 09:01:44;;;;;;;;;;;19.00;69.40;;;;;;5049492;28;20069;-64
2022/08/29 09:04:12;;;;;;;;;;;19.00;69.30;;;;;;5061559;28;19947;-65
2022/08/29 09:07:07;;;;;;;;;;;19.00;69.20;;;;;;5066476;28;20581;-64
2022/08/29 09:09:52;;;;;;;;;;;19.00;69.00;;;;;;5032729;28;19919;-64
2022/08/29 09:12:36;;;;;;;;;;;19.10;68.90;;;;;;5067142;28;19924;-64
2022/08/29 09:15:21;;;;;;;;;;;19.20;68.80;;;;;;5067657;28;19962;-65
2022/08/29 09:17:49;;;;;;;;;;;19.30;68.60;;;;;;5067703;28;19912;-65
2022/08/29 09:20:19;;;;;;;;;;;19.30;68.50;;;;;;5067862;28;19913;-64
2022/08/29 09:22:52;;;;;;;;;;;19.40;68.40;;;;;;5067638;28;19915;-65
2022/08/29 09:25:17;;;;;;;;;;;19.50;68.30;;;;;;5067799;28;20260;-64
2022/08/29 09:27:44;;;;;;;;;;;19.60;67.80;;;;;;5067422;28;19917;-64
2022/08/29 09:30:12;;;;;;;;;;;19.70;67.70;;;;;;5067613;28;20388;-64
2022/08/29 09:32:55;;;;;;;;;;;19.70;67.60;;;;;;5067205;28;19919;-64
2022/08/29 09:35:23;;;;;;;;;;;19.80;67.70;;;;;;5067527;28;19912;-65
2022/08/29 09:37:59;;;;;;;;;;;19.80;67.50;;;;;;5067157;28;19948;-65
2022/08/29 09:40:39;;;;;;;;;;;19.90;67.30;;;;;;5067126;28;20023;-65
2022/08/29 09:43:06;;;;;;;;;;;20.00;67.10;;;;;;5067110;28;19924;-65
2022/08/29 09:45:32;;;;;;;;;;;20.20;67.00;;;;;;5067557;28;19913;-64
2022/08/29 09:48:14;;;;;;;;;;;20.20;66.80;;;;;;5067441;28;19962;-65
2022/08/29 09:50:39;;;;;;;;;;;20.20;66.80;;;;;;5067071;28;19912;-65
2022/08/29 09:53:05;;;;;;;;;;;20.30;66.70;;;;;;5067385;28;19923;-65
2022/08/29 09:55:35;;;;;;;;;;;20.30;66.60;;;;;;5067477;28;19960;-65
2022/08/29 09:58:09;;;;;;;;;;;20.30;66.60;;;;;;5067204;28;20007;-65
2022/08/29 10:00:36;;;;;;;;;;;20.40;66.60;;;;;;5066613;28;19917;-65
2022/08/29 10:03:04;;;;;;;;;;;20.40;66.50;;;;;;5061718;28;19920;-65
2022/08/29 10:05:35;;;;;;;;;;;20.40;66.40;;;;;;5067262;28;19912;-65
2022/08/29 10:08:02;;;;;;;;;;;20.50;66.40;;;;;;5067247;28;19922;-64
2022/08/29 10:10:31;;;;;;;;;;;20.50;66.20;;;;;;5067363;28;19965;-65
2022/08/29 10:13:00;;;;;;;;;;;20.60;66.20;;;;;;5049105;28;19917;-65
2022/08/29 10:15:30;;;;;;;;;;;20.60;66.10;;;;;;5066427;28;19916;-65
2022/08/29 10:20:49;;;;;;;;;;;20.60;66.00;;;;;;5066854;28;20034;-65
2022/08/29 10:23:28;;;;;;;;;;;20.60;66.00;;;;;;5067191;28;19920;-65
2022/08/29 10:25:54;;;;;;;;;;;20.70;66.00;;;;;;5066052;28;19979;-65
2022/08/29 10:28:58;;;;;;;;;;;20.70;65.90;;;;;;5066458;28;19972;-65
2022/08/29 10:31:24;;;;;;;;;;;20.80;66.00;;;;;;4968285;28;19984;-65
2022/08/29 10:33:55;;;;;;;;;;;20.70;65.90;;;;;;4983917;28;20123;-65
2022/08/29 10:36:47;;;;;;;;;;;20.80;65.90;;;;;;5024781;28;19939;-65
2022/08/29 10:39:22;;;;;;;;;;;20.90;65.90;;;;;;5062244;28;20648;-65
2022/08/29 10:41:54;;;;;;;;;;;20.90;65.70;;;;;;5048261;28;19909;-65
2022/08/29 10:44:34;;;;;;;;;;;20.80;65.70;;;;;;5066057;28;20280;-65
2022/08/29 10:47:09;;;;;;;;;;;20.90;65.80;;;;;;5066261;28;19915;-65
2022/08/29 10:49:54;;;;;;;;;;;20.90;65.80;;;;;;5066738;28;19916;-65
2022/08/29 10:52:38;;;;;;;;;;;21.00;65.70;;;;;;5066622;28;20413;-65
2022/08/29 10:55:15;;;;;;;;;;;21.10;65.50;;;;;;5059612;28;19923;-65
2022/08/29 10:57:59;;;;;;;;;;;21.20;65.30;;;;;;5066432;28;19969;-65
2022/08/29 11:00:32;;;;;;;;;;;21.30;65.20;;;;;;5066207;28;19909;-65
2022/08/29 11:03:05;;;;;;;;;;;21.30;65.10;;;;;;5061127;28;20484;-65
2022/08/29 11:05:34;;;;;;;;;;;21.40;65.00;;;;;;5047852;28;20357;-66
2022/08/29 11:08:05;;;;;;;;;;;21.50;65.00;;;;;;5066223;28;19917;-65
2022/08/29 11:10:39;;;;;;;;;;;21.50;65.00;;;;;;5060343;28;19917;-65
2022/08/29 11:13:04;;;;;;;;;;;21.50;64.90;;;;;;5065944;28;20552;-65
2022/08/29 11:15:42;;;;;;;;;;;21.60;65.20;;;;;;5066194;28;19920;-65
2022/08/29 11:18:11;;;;;;;;;;;21.50;65.10;;;;;;5059820;28;19912;-65
2022/08/29 11:20:42;;;;;;;;;;;21.50;65.20;;;;;;5065586;28;20308;-65
2022/08/29 11:23:27;;;;;;;;;;;21.50;65.30;;;;;;5065448;28;19944;-65
2022/08/29 11:25:52;;;;;;;;;;;21.50;65.50;;;;;;5065355;28;20404;-65
2022/08/29 11:28:32;;;;;;;;;;;21.60;65.20;;;;;;5064971;28;19944;-65
2022/08/29 11:31:06;;;;;;;;;;;21.80;65.10;;;;;;5065177;28;19995;-65
2022/08/29 11:33:35;;;;;;;;;;;21.80;64.90;;;;;;5065894;28;19917;-65
2022/08/29 11:36:07;;;;;;;;;;;22.00;64.80;;;;;;5066501;28;20027;-65
2022/08/29 11:38:51;;;;;;;;;;;22.00;64.60;;;;;;5065728;28;20373;-65
2022/08/29 11:41:31;;;;;;;;;;;22.10;64.40;;;;;;5048082;28;19923;-65
2022/08/29 11:44:10;;;;;;;;;;;22.20;64.10;;;;;;5065866;28;19951;-65
2022/08/29 11:46:36;;;;;;;;;;;22.30;64.20;;;;;;5065481;28;19916;-65
2022/08/29 11:49:20;;;;;;;;;;;22.40;64.00;;;;;;5065339;28;19912;-65
2022/08/29 11:51:50;;;;;;;;;;;22.50;63.90;;;;;;5064924;28;20679;-65
2022/08/29 11:54:27;;;;;;;;;;;22.50;63.90;;;;;;5065412;28;20404;-65
2022/08/29 11:56:59;;;;;;;;;;;22.60;63.60;;;;;;5060358;28;19999;-65
2022/08/29 11:59:48;;;;;;;;;;;22.70;63.50;;;;;;5064601;28;20482;-65
2022/08/29 12:02:38;;;;;;;;;;;22.80;63.40;;;;;;5061253;28;19982;-65
2022/08/29 12:05:15;;;;;;;;;;;22.90;63.30;;;;;;5060299;28;20011;-65
2022/08/29 12:07:53;;;;;;;;;;;23.00;63.30;;;;;;5065373;28;19912;-65
2022/08/29 12:10:18;;;;;;;;;;;23.10;63.20;;;;;;5065452;28;19912;-65
2022/08/29 12:12:46;;;;;;;;;;;23.20;63.10;;;;;;5064170;28;19920;-65
2022/08/29 12:15:33;;;;;;;;;;;23.20;63.00;;;;;;5047139;28;19909;-66
2022/08/29 12:17:59;;;;;;;;;;;23.30;63.00;;;;;;5046643;28;19923;-65
2022/08/29 12:20:30;;;;;;;;;;;23.30;63.00;;;;;;5064795;28;19912;-66
2022/08/29 12:23:05;;;;;;;;;;;23.40;63.10;;;;;;5065437;28;19940;-65
2022/08/29 12:25:43;;;;;;;;;;;23.40;63.00;;;;;;5068145;28;19959;-66
2022/08/29 12:28:25;;;;;;;;;;;23.40;63.00;;;;;;5068151;28;19922;-65
2022/08/29 12:30:57;;;;;;;;;;;23.50;63.20;;;;;;5067963;28;19912;-66
2022/08/29 12:33:25;;;;;;;;;;;23.60;63.20;;;;;;5050131;28;20054;-66
2022/08/29 12:35:54;;;;;;;;;;;23.60;63.20;;;;;;5067888;28;19913;-65
2022/08/29 12:38:22;;;;;;;;;;;23.60;63.10;;;;;;5068515;28;19912;-65
2022/08/29 12:41:06;;;;;;;;;;;23.70;63.10;;;;;;5068353;28;19908;-66
2022/08/29 12:43:34;;;;;;;;;;;23.70;63.30;;;;;;5068608;28;19923;-66
2022/08/29 12:46:01;;;;;;;;;;;23.80;63.10;;;;;;5069050;28;19912;-65
2022/08/29 12:48:38;;;;;;;;;;;23.90;63.00;;;;;;5068521;28;19936;-66
2022/08/29 12:51:04;;;;;;;;;;;23.90;63.10;;;;;;5067094;28;19917;-65
2022/08/29 12:53:33;;;;;;;;;;;23.90;63.00;;;;;;5068577;28;19920;-66
2022/08/29 12:56:02;;;;;;;;;;;24.00;63.30;;;;;;5068458;28;19916;-65
2022/08/29 12:58:38;;;;;;;;;;;24.00;63.20;;;;;;5068155;28;19908;-65
2022/08/29 13:01:06;;;;;;;;;;;24.00;63.30;;;;;;5066422;28;19917;-66
2022/08/29 13:03:32;;;;;;;;;;;24.10;63.00;;;;;;5062199;28;19916;-66
2022/08/29 13:06:03;;;;;;;;;;;24.10;63.10;;;;;;5067221;28;19989;-66
2022/08/29 13:08:32;;;;;;;;;;;24.20;63.30;;;;;;5066426;28;19920;-65
2022/08/29 13:11:23;;;;;;;;;;;24.30;62.40;;;;;;5064039;28;19912;-66
2022/08/29 13:13:49;;;;;;;;;;;24.30;63.20;;;;;;5062863;28;19916;-66
2022/08/29 13:16:22;;;;;;;;;;;24.30;63.10;;;;;;5066490;28;19936;-66
2022/08/29 13:18:48;;;;;;;;;;;24.40;63.20;;;;;;5066573;28;19916;-66
2022/08/29 13:21:22;;;;;;;;;;;24.50;63.20;;;;;;5066260;28;19920;-66
2022/08/29 13:24:11;;;;;;;;;;;24.50;63.10;;;;;;5066418;28;19928;-66
2022/08/29 13:26:42;;;;;;;;;;;24.50;63.10;;;;;;5053497;28;19963;-65
2022/08/29 13:29:07;;;;;;;;;;;24.60;63.10;;;;;;5061782;28;19912;-66
2022/08/29 13:31:36;;;;;;;;;;;24.70;63.10;;;;;;5066829;28;19978;-66
2022/08/29 13:34:14;;;;;;;;;;;24.70;63.00;;;;;;5066788;28;20031;-65
2022/08/29 13:36:39;;;;;;;;;;;24.70;62.90;;;;;;5062490;28;20027;-66
2022/08/29 13:39:15;;;;;;;;;;;24.80;63.20;;;;;;5060440;28;20045;-66
2022/08/29 13:42:01;;;;;;;;;;;24.80;63.10;;;;;;5061030;28;19916;-66
2022/08/29 13:44:26;;;;;;;;;;;24.90;63.00;;;;;;5058248;28;19916;-66
2022/08/29 13:46:56;;;;;;;;;;;24.90;62.70;;;;;;5061093;28;20027;-66
2022/08/29 13:49:23;;;;;;;;;;;25.00;62.20;;;;;;5059404;28;19917;-66
2022/08/29 13:51:49;;;;;;;;;;;25.00;62.80;;;;;;5061320;28;20436;-66
2022/08/29 13:54:14;;;;;;;;;;;25.00;62.80;;;;;;5062373;28;19918;-66
2022/08/29 13:56:41;;;;;;;;;;;25.10;62.90;;;;;;5064229;28;19921;-66
2022/08/29 13:59:06;;;;;;;;;;;25.10;62.80;;;;;;5065454;28;20355;-66
2022/08/29 14:01:32;;;;;;;;;;;25.20;62.70;;;;;;5065883;28;19936;-66
2022/08/29 14:03:57;;;;;;;;;;;25.20;62.60;;;;;;5061947;28;19915;-66
2022/08/29 14:06:24;;;;;;;;;;;25.20;62.60;;;;;;5047829;28;20031;-66
2022/08/29 14:08:50;;;;;;;;;;;25.30;62.60;;;;;;5066107;28;19939;-66
2022/08/29 14:11:16;;;;;;;;;;;25.30;62.60;;;;;;5065369;28;19920;-66
2022/08/29 14:13:42;;;;;;;;;;;25.30;62.40;;;;;;5066479;28;19912;-66
2022/08/29 14:16:08;;;;;;;;;;;25.30;62.50;;;;;;5066662;28;19995;-66
2022/08/29 14:18:34;;;;;;;;;;;25.40;62.60;;;;;;5065933;28;19913;-67
2022/08/29 14:20:59;;;;;;;;;;;25.40;62.30;;;;;;5044779;28;19924;-66
2022/08/29 14:23:25;;;;;;;;;;;25.40;62.20;;;;;;5065682;28;19912;-65
2022/08/29 14:25:50;;;;;;;;;;;25.50;62.00;;;;;;5065874;28;19940;-66
2022/08/29 14:28:17;;;;;;;;;;;25.50;62.00;;;;;;5065897;28;20420;-66
2022/08/29 14:30:42;;;;;;;;;;;25.60;61.60;;;;;;5065750;28;19962;-66